Time;durP1;ratioP1;P1;durP2;ratioP2;P2;SDS_P1;SDS_P2;PMS_P1;PMS_P2;Temp;Humidity;BMP_temperature;BMP_pressure;BME280_temperature;BME280_humidity;BME280_pressure;Samples;Min_cycle;Max_cycle;Signal;HPM_P1;HPM_P2
2022/12/23 00:01:17;;;;;;;8.23;7.13;;;9.60;99.90;;;;;;5040598;28;20605;-65
2022/12/23 00:03:44;;;;;;;10.40;7.40;;;9.60;99.90;;;;;;5041122;28;20465;-65
2022/12/23 00:06:15;;;;;;;13.40;8.30;;;9.70;99.90;;;;;;5040070;28;20499;-65
2022/12/23 00:08:42;;;;;;;14.07;8.80;;;9.70;99.90;;;;;;5040317;28;20538;-65
2022/12/23 00:11:12;;;;;;;13.30;7.30;;;9.70;99.90;;;;;;5039965;28;20498;-65
2022/12/23 00:16:24;;;;;;;12.20;7.60;;;9.70;99.90;;;;;;5039764;28;20967;-65
2022/12/23 00:18:53;;;;;;;13.20;7.40;;;9.70;99.90;;;;;;5040574;28;20466;-66
2022/12/23 00:21:21;;;;;;;19.33;8.40;;;9.70;99.90;;;;;;5040412;28;20902;-65
2022/12/23 00:23:51;;;;;;;13.97;7.10;;;9.70;99.90;;;;;;5040393;28;20462;-65
2022/12/23 00:26:20;;;;;;;13.23;7.07;;;9.70;99.90;;;;;;5040577;28;20498;-65
2022/12/23 00:28:47;;;;;;;13.10;7.77;;;9.70;99.90;;;;;;5039969;28;20467;-65
2022/12/23 00:31:17;;;;;;;15.63;7.80;;;9.70;99.90;;;;;;5058136;28;20748;-65
2022/12/23 00:33:46;;;;;;;14.30;7.47;;;9.70;99.90;;;;;;5060308;28;20549;-65
2022/12/23 00:36:15;;;;;;;15.13;6.40;;;9.70;99.90;;;;;;5060224;28;20458;-65
2022/12/23 00:44:13;;;;;;;12.67;6.67;;;9.70;99.90;;;;;;5059845;28;20744;-65
2022/12/23 00:46:40;;;;;;;9.77;5.77;;;9.70;99.90;;;;;;5059455;28;20500;-66
2022/12/23 00:51:52;;;;;;;9.60;6.07;;;9.70;99.90;;;;;;5059665;28;20437;-65
2022/12/23 00:54:20;;;;;;;9.63;6.03;;;9.70;99.90;;;;;;5059854;28;20467;-65
2022/12/23 00:56:47;;;;;;;13.27;6.33;;;9.70;99.90;;;;;;5059854;28;20462;-66
2022/12/23 00:59:15;;;;;;;10.63;6.13;;;9.70;99.90;;;;;;5059519;28;20468;-65
2022/12/23 01:07:11;;;;;;;8.07;6.60;;;9.70;99.90;;;;;;5059160;28;20437;-65
2022/12/23 01:09:39;;;;;;;11.63;6.23;;;9.70;99.90;;;;;;5059414;28;20571;-65
2022/12/23 01:12:07;;;;;;;9.93;6.83;;;9.70;99.90;;;;;;5059495;28;20462;-64
2022/12/23 01:14:34;;;;;;;7.50;6.50;;;9.70;99.90;;;;;;5058791;28;20458;-65
2022/12/23 01:17:02;;;;;;;10.07;7.33;;;9.70;99.90;;;;;;5059365;28;20749;-66
2022/12/23 01:19:29;;;;;;;9.37;7.33;;;9.70;99.90;;;;;;5059290;28;20464;-65
2022/12/23 01:21:56;;;;;;;14.53;6.53;;;9.70;99.90;;;;;;5059875;28;20481;-65
2022/12/23 01:24:27;;;;;;;8.93;5.90;;;9.60;99.90;;;;;;5059565;28;20453;-66
2022/12/23 01:26:56;;;;;;;8.90;6.50;;;9.70;99.90;;;;;;5059035;28;20791;-67
2022/12/23 01:29:23;;;;;;;7.90;6.30;;;9.60;99.90;;;;;;5058949;28;20468;-68
2022/12/23 01:31:50;;;;;;;11.40;7.90;;;9.60;99.90;;;;;;5059217;28;20462;-68
2022/12/23 01:34:17;;;;;;;14.50;7.23;;;9.60;99.90;;;;;;5059189;28;20775;-67
2022/12/23 01:36:45;;;;;;;8.03;7.10;;;9.60;99.90;;;;;;5059183;28;20493;-67
2022/12/23 01:39:12;;;;;;;11.70;7.53;;;9.60;99.90;;;;;;5059024;28;20462;-67
2022/12/23 01:44:54;;;;;;;13.10;8.10;;;9.60;99.90;;;;;;4997210;28;20429;-67
2022/12/23 01:47:27;;;;;;;20.33;8.57;;;9.60;99.90;;;;;;5052076;28;20466;-66
2022/12/23 01:49:59;;;;;;;11.10;8.93;;;9.50;99.90;;;;;;5058861;28;20462;-66
2022/12/23 01:52:27;;;;;;;10.80;8.63;;;9.50;99.90;;;;;;5058770;28;20441;-66
2022/12/23 01:54:56;;;;;;;15.53;9.40;;;9.50;99.90;;;;;;5058563;28;20500;-66
2022/12/23 01:57:24;;;;;;;12.63;9.00;;;9.60;99.90;;;;;;5058709;28;20433;-66
2022/12/23 02:05:24;;;;;;;15.60;11.10;;;9.60;99.90;;;;;;5057664;28;20800;-66
2022/12/23 02:11:08;;;;;;;15.37;11.37;;;9.60;99.90;;;;;;5022002;28;20408;-66
2022/12/23 02:16:15;;;;;;;12.77;9.97;;;9.60;99.90;;;;;;5057885;28;20540;-64
2022/12/23 02:16:39;;;;;;;13.33;10.20;;;9.60;99.90;;;;;;5057273;28;20429;-65
2022/12/23 02:19:14;;;;;;;13.57;9.87;;;9.60;99.90;;;;;;5058573;28;20462;-65
2022/12/23 02:22:09;;;;;;;9.80;8.90;;;9.50;99.90;;;;;;5058354;28;20465;-66
2022/12/23 02:25:14;;;;;;;17.40;9.90;;;9.50;99.90;;;;;;5057703;28;20461;-66
2022/12/23 02:27:51;;;;;;;14.30;9.90;;;9.50;99.90;;;;;;5044741;28;20468;-66
2022/12/23 02:30:27;;;;;;;16.27;10.77;;;9.50;99.90;;;;;;5058108;28;20504;-66
2022/12/23 02:33:30;;;;;;;15.30;12.10;;;9.60;99.90;;;;;;5057912;28;20458;-66
2022/12/23 02:36:15;;;;;;;19.50;11.97;;;9.50;99.90;;;;;;5045089;28;20470;-65
2022/12/23 02:38:48;;;;;;;13.93;11.40;;;9.50;99.90;;;;;;5057443;28;20458;-65
2022/12/23 02:41:21;;;;;;;12.60;10.50;;;9.50;99.90;;;;;;5057976;28;20458;-65
2022/12/23 02:43:56;;;;;;;13.67;10.70;;;9.50;99.90;;;;;;5057881;28;20757;-65
2022/12/23 02:46:31;;;;;;;17.77;11.60;;;9.50;99.90;;;;;;5057283;28;20952;-65
2022/12/23 02:49:08;;;;;;;12.80;9.63;;;9.50;99.90;;;;;;5057566;28;20758;-65
2022/12/23 02:51:40;;;;;;;11.57;10.37;;;9.50;99.90;;;;;;5057537;28;20461;-65
2022/12/23 02:54:12;;;;;;;11.50;9.57;;;9.50;99.90;;;;;;5057923;28;20878;-65
2022/12/23 02:56:43;;;;;;;13.30;9.90;;;9.50;99.90;;;;;;5057342;28;20468;-65
2022/12/23 02:59:15;;;;;;;16.60;10.97;;;9.50;99.90;;;;;;5057385;28;20444;-65
2022/12/23 03:01:45;;;;;;;13.00;10.60;;;9.60;99.90;;;;;;5057419;28;20437;-65
2022/12/23 03:04:14;;;;;;;13.97;9.60;;;9.60;99.90;;;;;;5057490;28;20468;-65
2022/12/23 03:06:43;;;;;;;11.37;10.20;;;9.60;99.90;;;;;;5057379;28;20928;-65
2022/12/23 03:09:22;;;;;;;14.93;10.50;;;9.60;99.90;;;;;;5057170;28;20557;-65
2022/12/23 03:11:56;;;;;;;13.30;9.60;;;9.50;99.90;;;;;;5057265;28;20556;-65
2022/12/23 03:14:45;;;;;;;14.20;9.13;;;9.60;99.90;;;;;;5056141;28;20490;-65
2022/12/23 03:17:28;;;;;;;14.90;10.30;;;9.60;99.90;;;;;;5057248;28;20465;-65
2022/12/23 03:20:03;;;;;;;13.33;9.57;;;9.50;99.90;;;;;;5057312;28;20883;-65
2022/12/23 03:22:35;;;;;;;12.60;10.10;;;9.60;99.90;;;;;;5056712;28;20457;-65
2022/12/23 03:25:08;;;;;;;12.33;9.93;;;9.60;99.90;;;;;;5057020;28;20887;-65
2022/12/23 03:27:41;;;;;;;14.63;10.70;;;9.50;99.90;;;;;;5057157;28;20935;-65
2022/12/23 03:30:12;;;;;;;12.80;10.50;;;9.60;99.90;;;;;;5057082;28;20466;-65
2022/12/23 03:32:47;;;;;;;16.77;10.97;;;9.50;99.90;;;;;;5056748;28;20462;-66
2022/12/23 03:35:17;;;;;;;12.07;10.70;;;9.60;99.90;;;;;;5056796;28;20468;-67
2022/12/23 03:37:48;;;;;;;17.40;11.83;;;9.60;99.90;;;;;;5057089;28;20924;-67
2022/12/23 03:40:20;;;;;;;19.23;12.70;;;9.50;99.90;;;;;;5057368;28;20732;-66
2022/12/23 03:42:53;;;;;;;15.30;13.10;;;9.50;99.90;;;;;;5057017;28;20762;-67
2022/12/23 03:45:26;;;;;;;19.47;12.77;;;9.50;99.90;;;;;;5056822;28;20466;-68
2022/12/23 03:47:59;;;;;;;13.60;11.57;;;9.50;99.90;;;;;;5057004;28;20462;-68
2022/12/23 03:50:28;;;;;;;13.40;11.70;;;9.50;99.90;;;;;;5057010;28;20527;-68
2022/12/23 03:53:00;;;;;;;18.00;12.70;;;9.50;99.90;;;;;;5056763;28;21000;-66
2022/12/23 03:55:32;;;;;;;21.30;14.60;;;9.50;99.90;;;;;;5056743;28;20462;-66
2022/12/23 03:58:04;;;;;;;16.70;13.37;;;9.50;99.90;;;;;;5056428;28;20462;-66
2022/12/23 04:00:36;;;;;;;17.17;13.27;;;9.50;99.90;;;;;;5056257;28;20466;-66
2022/12/23 04:03:16;;;;;;;21.43;14.30;;;9.50;99.90;;;;;;5056928;28;20462;-66
2022/12/23 04:05:49;;;;;;;17.63;14.13;;;9.50;99.90;;;;;;5056260;28;20818;-67
2022/12/23 04:08:20;;;;;;;17.40;13.67;;;9.50;99.90;;;;;;5056855;28;20462;-68
2022/12/23 04:10:47;;;;;;;22.30;13.90;;;9.50;99.90;;;;;;5056342;28;20486;-67
2022/12/23 04:13:14;;;;;;;18.53;13.53;;;9.50;99.90;;;;;;5056749;28;20520;-68
2022/12/23 04:15:42;;;;;;;15.83;12.37;;;9.50;99.90;;;;;;5056618;28;20466;-67
2022/12/23 04:18:11;;;;;;;20.47;12.70;;;9.50;99.90;;;;;;5056630;28;20462;-67
2022/12/23 04:20:38;;;;;;;14.33;11.93;;;9.50;99.90;;;;;;5056399;28;20895;-67
2022/12/23 04:23:06;;;;;;;21.17;12.70;;;9.50;99.90;;;;;;5056246;28;20462;-67
2022/12/23 04:25:33;;;;;;;15.40;12.30;;;9.40;99.90;;;;;;5056510;28;20513;-68
2022/12/23 04:28:00;;;;;;;16.40;12.03;;;9.50;99.90;;;;;;5056882;28;20462;-67
2022/12/23 04:30:27;;;;;;;18.53;12.33;;;9.50;99.90;;;;;;5055975;28;20472;-67
2022/12/23 04:32:55;;;;;;;16.97;12.33;;;9.50;99.90;;;;;;5056383;28;20466;-67
2022/12/23 04:35:23;;;;;;;16.60;12.70;;;9.40;99.90;;;;;;5056495;28;20759;-66
2022/12/23 04:37:50;;;;;;;23.27;13.37;;;9.50;99.90;;;;;;5056034;28;20466;-66
2022/12/23 04:40:18;;;;;;;15.03;12.27;;;9.40;99.90;;;;;;5058431;28;20745;-66
2022/12/23 04:42:45;;;;;;;20.07;12.40;;;9.40;99.90;;;;;;5059848;28;20486;-69
2022/12/23 04:45:12;;;;;;;20.10;11.83;;;9.50;99.90;;;;;;5060088;28;20462;-69
2022/12/23 04:47:40;;;;;;;20.10;13.00;;;9.50;99.90;;;;;;5059778;28;20516;-69
2022/12/23 04:50:10;;;;;;;21.37;13.33;;;9.40;99.90;;;;;;5060012;28;20527;-68
2022/12/23 04:52:39;;;;;;;15.03;11.53;;;9.40;99.90;;;;;;5054148;28;20458;-68
2022/12/23 04:55:07;;;;;;;16.30;12.30;;;9.30;99.90;;;;;;5039819;28;20948;-68
2022/12/23 04:57:34;;;;;;;14.80;11.33;;;9.30;99.90;;;;;;5039811;28;20517;-68
2022/12/23 05:00:02;;;;;;;14.20;11.67;;;9.40;99.90;;;;;;5039773;28;20779;-67
2022/12/23 05:02:30;;;;;;;15.60;11.17;;;9.30;99.90;;;;;;5039455;28;20474;-67
2022/12/23 05:04:57;;;;;;;13.90;11.23;;;9.30;99.90;;;;;;5039065;28;20530;-67
2022/12/23 05:07:25;;;;;;;15.20;11.53;;;9.40;99.90;;;;;;5039624;28;20491;-66
2022/12/23 05:09:54;;;;;;;15.33;10.57;;;9.30;99.90;;;;;;5039608;28;20463;-66
2022/12/23 05:12:21;;;;;;;15.50;10.10;;;9.30;99.90;;;;;;5030291;28;20554;-67
2022/12/23 05:14:48;;;;;;;17.53;10.83;;;9.30;99.90;;;;;;5019341;28;20470;-67
2022/12/23 05:17:15;;;;;;;13.57;11.10;;;9.40;99.90;;;;;;5019888;28;20471;-67
2022/12/23 05:19:43;;;;;;;21.03;11.87;;;9.30;99.90;;;;;;5019687;28;20760;-67
2022/12/23 05:22:10;;;;;;;16.90;11.07;;;9.30;99.90;;;;;;5019570;28;20468;-67
2022/12/23 05:24:37;;;;;;;17.40;12.00;;;9.30;99.90;;;;;;5019346;28;20464;-66
2022/12/23 05:27:05;;;;;;;14.47;12.17;;;9.40;99.90;;;;;;5019083;28;20496;-66
2022/12/23 05:29:33;;;;;;;16.07;12.37;;;9.30;99.90;;;;;;5018840;28;20438;-66
2022/12/23 05:32:00;;;;;;;16.80;12.90;;;9.30;99.90;;;;;;5019047;28;20474;-66
2022/12/23 05:34:27;;;;;;;21.60;12.50;;;9.30;99.90;;;;;;5019018;28;20468;-66
2022/12/23 05:36:54;;;;;;;14.97;12.10;;;9.30;99.90;;;;;;5019180;28;20877;-66
2022/12/23 05:39:23;;;;;;;18.90;11.33;;;9.30;99.90;;;;;;5019061;28;20471;-67
2022/12/23 05:41:50;;;;;;;18.00;12.57;;;9.30;99.90;;;;;;5019642;28;20434;-68
2022/12/23 05:44:19;;;;;;;19.67;12.57;;;9.30;99.90;;;;;;5019236;28;20466;-69
2022/12/23 05:46:46;;;;;;;15.87;12.57;;;9.30;99.90;;;;;;5018816;28;20945;-68
2022/12/23 05:49:13;;;;;;;16.50;12.97;;;9.30;99.90;;;;;;5018956;28;20549;-67
2022/12/23 05:51:40;;;;;;;18.30;13.77;;;9.30;99.90;;;;;;5019235;28;20467;-68
2022/12/23 05:54:07;;;;;;;15.73;12.90;;;9.30;99.90;;;;;;5018975;28;20467;-68
2022/12/23 05:56:35;;;;;;;19.13;13.57;;;9.30;99.90;;;;;;5018726;28;20490;-68
2022/12/23 05:59:02;;;;;;;20.90;13.13;;;9.30;99.90;;;;;;5046907;28;20462;-67
2022/12/23 06:01:30;;;;;;;20.97;15.00;;;9.30;99.90;;;;;;5058401;28;20472;-67
2022/12/23 06:03:57;;;;;;;16.13;13.70;;;9.30;99.90;;;;;;5058470;28;20743;-67
2022/12/23 06:06:24;;;;;;;15.73;11.73;;;9.20;99.90;;;;;;5057637;28;20498;-67
2022/12/23 06:08:52;;;;;;;14.93;12.73;;;9.20;99.90;;;;;;5057180;28;20462;-67
2022/12/23 06:11:19;;;;;;;16.30;13.13;;;9.30;99.90;;;;;;5058129;28;20466;-68
2022/12/23 06:13:46;;;;;;;18.73;13.50;;;9.30;99.90;;;;;;5058412;28;20462;-68
2022/12/23 06:16:13;;;;;;;18.53;13.80;;;9.30;99.90;;;;;;5058378;28;20783;-66
2022/12/23 06:18:42;;;;;;;19.50;14.03;;;9.20;99.90;;;;;;5057854;28;20441;-67
2022/12/23 06:21:09;;;;;;;21.43;13.07;;;9.20;99.90;;;;;;5058616;28;20461;-67
2022/12/23 06:23:36;;;;;;;19.10;13.93;;;9.20;99.90;;;;;;5058324;28;20463;-67
2022/12/23 06:26:04;;;;;;;17.70;13.13;;;9.20;99.90;;;;;;5057646;28;20911;-67
2022/12/23 06:28:32;;;;;;;18.93;13.50;;;9.20;99.90;;;;;;5057053;28;20500;-66
2022/12/23 06:30:59;;;;;;;19.67;13.30;;;9.20;99.90;;;;;;5057398;28;20851;-66
2022/12/23 06:33:26;;;;;;;20.80;12.13;;;9.20;99.90;;;;;;5057910;28;20816;-66
2022/12/23 06:35:55;;;;;;;21.30;13.70;;;9.20;99.90;;;;;;5057942;28;20473;-66
2022/12/23 06:38:22;;;;;;;21.83;12.63;;;9.20;99.90;;;;;;5057301;28;20443;-66
2022/12/23 06:40:49;;;;;;;19.47;13.27;;;9.10;99.90;;;;;;5057638;28;20759;-66
2022/12/23 06:43:16;;;;;;;17.77;12.53;;;9.10;99.90;;;;;;5057800;28;20462;-66
2022/12/23 06:45:47;;;;;;;20.40;14.30;;;9.20;99.90;;;;;;5057685;28;20505;-66
2022/12/23 06:48:14;;;;;;;16.83;13.50;;;9.10;99.90;;;;;;5057673;28;20487;-66
2022/12/23 06:50:42;;;;;;;19.57;13.90;;;9.20;99.90;;;;;;5057454;28;20466;-65
2022/12/23 06:53:10;;;;;;;18.63;12.67;;;9.10;99.90;;;;;;5057520;28;20884;-65
2022/12/23 06:55:38;;;;;;;22.87;13.23;;;9.10;99.90;;;;;;5057645;28;20564;-65
2022/12/23 06:58:05;;;;;;;16.90;12.90;;;9.10;99.90;;;;;;5057596;28;20481;-65
2022/12/23 07:00:32;;;;;;;18.10;13.50;;;9.10;99.90;;;;;;5057198;28;20762;-65
2022/12/23 07:02:59;;;;;;;15.43;11.90;;;9.20;99.90;;;;;;5057030;28;20462;-65
2022/12/23 07:05:26;;;;;;;17.90;12.60;;;9.10;99.90;;;;;;5056975;28;20504;-65
2022/12/23 07:07:54;;;;;;;20.90;13.00;;;9.10;99.90;;;;;;5057829;28;20494;-65
2022/12/23 07:10:23;;;;;;;19.80;13.23;;;9.20;99.90;;;;;;5057414;28;20498;-65
2022/12/23 07:12:50;;;;;;;17.63;12.60;;;9.20;99.90;;;;;;5057268;28;20443;-65
2022/12/23 07:15:17;;;;;;;15.23;12.73;;;9.20;99.90;;;;;;5057478;28;20469;-65
2022/12/23 07:17:44;;;;;;;19.40;14.57;;;9.10;99.90;;;;;;5056808;28;20459;-65
2022/12/23 07:20:13;;;;;;;22.77;13.67;;;9.20;99.90;;;;;;5056388;28;20462;-65
2022/12/23 07:22:40;;;;;;;24.70;14.60;;;9.20;99.90;;;;;;5057289;28;20830;-65
2022/12/23 07:25:08;;;;;;;18.90;13.83;;;9.20;99.90;;;;;;5056835;28;20466;-65
2022/12/23 07:27:37;;;;;;;21.00;13.93;;;9.10;99.90;;;;;;5056794;28;20493;-65
2022/12/23 07:30:05;;;;;;;22.80;15.10;;;9.20;99.90;;;;;;5057120;28;20472;-65
2022/12/23 07:32:32;;;;;;;26.73;13.83;;;9.20;99.90;;;;;;5056594;28;20466;-65
2022/12/23 07:34:59;;;;;;;20.80;13.70;;;9.20;99.90;;;;;;5057017;28;20565;-65
2022/12/23 07:37:26;;;;;;;19.77;14.67;;;9.20;99.90;;;;;;5057286;28;20786;-66
2022/12/23 07:39:53;;;;;;;17.70;13.90;;;9.20;99.90;;;;;;5056759;28;20469;-65
2022/12/23 07:42:20;;;;;;;16.90;12.83;;;9.20;99.90;;;;;;5057059;28;20492;-65
2022/12/23 07:44:49;;;;;;;19.83;12.47;;;9.10;99.90;;;;;;5057050;28;20875;-65
2022/12/23 07:47:18;;;;;;;19.10;11.90;;;9.20;99.90;;;;;;5056548;28;20556;-65
2022/12/23 07:49:45;;;;;;;19.43;11.80;;;9.20;99.90;;;;;;5056830;28;20463;-66
2022/12/23 07:52:12;;;;;;;14.40;12.80;;;9.20;99.90;;;;;;5057230;28;20466;-65
2022/12/23 07:54:39;;;;;;;16.30;12.40;;;9.20;99.90;;;;;;5056487;28;20474;-65
2022/12/23 07:57:06;;;;;;;18.23;12.97;;;9.20;99.90;;;;;;5056668;28;20764;-66
2022/12/23 07:59:33;;;;;;;19.17;12.60;;;9.20;99.90;;;;;;5056584;28;20553;-65
2022/12/23 08:02:02;;;;;;;16.80;11.80;;;9.20;99.90;;;;;;5056899;28;20485;-66
2022/12/23 08:04:29;;;;;;;19.43;12.43;;;9.30;99.90;;;;;;5056075;28;20466;-66
2022/12/23 08:06:56;;;;;;;18.30;13.60;;;9.30;99.90;;;;;;5056579;28;20766;-66
2022/12/23 08:09:23;;;;;;;18.70;11.63;;;9.30;99.90;;;;;;5056488;28;20561;-66
2022/12/23 08:11:50;;;;;;;14.27;10.03;;;9.30;99.90;;;;;;5055866;28;20572;-66
2022/12/23 08:14:18;;;;;;;16.57;9.03;;;9.30;99.90;;;;;;5056633;28;20879;-66
2022/12/23 08:16:45;;;;;;;15.93;9.20;;;9.30;99.90;;;;;;5059911;28;20462;-66
2022/12/23 08:19:13;;;;;;;11.40;9.50;;;9.30;99.90;;;;;;5060479;28;20894;-66
2022/12/23 08:21:40;;;;;;;13.37;10.43;;;9.30;99.90;;;;;;5058814;28;20470;-66
2022/12/23 08:24:08;;;;;;;14.73;9.37;;;9.40;99.90;;;;;;5059167;28;20437;-66
2022/12/23 08:26:35;;;;;;;11.30;9.00;;;9.40;99.90;;;;;;5059196;28;20468;-66
2022/12/23 08:29:02;;;;;;;15.37;9.80;;;9.40;99.90;;;;;;5059115;28;20524;-66
2022/12/23 08:31:30;;;;;;;11.03;9.50;;;9.40;99.90;;;;;;5058558;28;20469;-66
2022/12/23 08:33:59;;;;;;;18.33;10.10;;;9.40;99.90;;;;;;5058717;28;20879;-65
2022/12/23 08:36:30;;;;;;;16.80;10.47;;;9.40;99.90;;;;;;5058142;28;20469;-66
2022/12/23 08:38:59;;;;;;;14.63;11.47;;;9.40;99.90;;;;;;5057438;28;20811;-66
2022/12/23 08:41:29;;;;;;;17.33;10.07;;;9.40;99.90;;;;;;5045184;28;20515;-66
2022/12/23 08:43:57;;;;;;;13.80;10.50;;;9.40;99.90;;;;;;5037623;28;20725;-66
2022/12/23 08:46:25;;;;;;;14.20;10.47;;;9.40;99.90;;;;;;5038755;28;20459;-66
2022/12/23 08:48:52;;;;;;;15.00;10.50;;;9.40;99.90;;;;;;5038413;28;20593;-66
2022/12/23 08:51:24;;;;;;;20.93;11.17;;;9.40;99.90;;;;;;5038452;28;20441;-66
2022/12/23 08:53:55;;;;;;;16.07;11.70;;;9.40;99.90;;;;;;5039989;28;20441;-66
2022/12/23 08:56:23;;;;;;;16.93;12.53;;;9.50;99.90;;;;;;5040311;28;20896;-66
2022/12/23 08:58:52;;;;;;;14.53;11.80;;;9.40;99.90;;;;;;5039658;28;20481;-66
2022/12/23 09:01:22;;;;;;;19.83;13.60;;;9.40;99.90;;;;;;5040150;28;20467;-66
2022/12/23 09:03:50;;;;;;;25.73;13.57;;;9.40;99.90;;;;;;5039832;28;20810;-66
2022/12/23 09:06:18;;;;;;;15.97;12.43;;;9.40;99.90;;;;;;5039215;28;20486;-66
2022/12/23 09:08:46;;;;;;;19.10;13.10;;;9.40;99.90;;;;;;5039439;28;20775;-66
2022/12/23 09:11:16;;;;;;;17.50;13.17;;;9.40;99.90;;;;;;5039502;28;20491;-66
2022/12/23 09:13:44;;;;;;;16.67;12.20;;;9.40;99.90;;;;;;5038796;28;20555;-66
2022/12/23 09:16:11;;;;;;;16.97;11.70;;;9.50;99.90;;;;;;5039256;28;20769;-66
2022/12/23 09:18:38;;;;;;;21.33;14.57;;;9.50;99.90;;;;;;5039575;28;20742;-66
2022/12/23 09:21:08;;;;;;;15.10;12.60;;;9.50;99.90;;;;;;5039271;28;20892;-66
2022/12/23 09:23:36;;;;;;;17.07;13.07;;;9.40;99.90;;;;;;5039106;28;20470;-66
2022/12/23 09:26:05;;;;;;;21.40;14.20;;;9.40;99.90;;;;;;5034756;28;20475;-66
2022/12/23 09:28:33;;;;;;;19.00;12.13;;;9.40;99.90;;;;;;5018269;28;20781;-65
2022/12/23 09:31:07;;;;;;;16.90;12.47;;;9.40;99.90;;;;;;5019225;28;20897;-65
2022/12/23 09:33:34;;;;;;;16.20;11.13;;;9.40;99.90;;;;;;5018953;28;20924;-65
2022/12/23 09:36:02;;;;;;;12.40;11.10;;;9.40;99.90;;;;;;5018625;28;20770;-65
2022/12/23 09:38:29;;;;;;;13.83;10.60;;;9.40;99.90;;;;;;5018944;28;20901;-65
2022/12/23 09:41:02;;;;;;;11.90;10.50;;;9.50;99.90;;;;;;5019349;28;20468;-65
2022/12/23 09:43:43;;;;;;;12.30;10.90;;;9.40;99.90;;;;;;5018973;28;20463;-65
2022/12/23 09:46:16;;;;;;;12.93;10.10;;;9.40;99.90;;;;;;5019039;28;20460;-65
2022/12/23 09:48:49;;;;;;;11.00;8.90;;;9.40;99.90;;;;;;5018632;28;20496;-65
2022/12/23 09:51:20;;;;;;;11.97;8.63;;;9.40;99.90;;;;;;5019018;28;20732;-65
2022/12/23 09:53:54;;;;;;;11.47;9.80;;;9.40;99.90;;;;;;5020872;28;20467;-64
2022/12/23 09:56:31;;;;;;;11.80;8.50;;;9.40;99.90;;;;;;5034614;28;20917;-64
2022/12/23 09:59:11;;;;;;;12.80;8.87;;;9.40;99.90;;;;;;5038246;28;20482;-64
2022/12/23 10:01:44;;;;;;;12.73;8.73;;;9.50;99.90;;;;;;5038601;28;20463;-65
2022/12/23 10:04:32;;;;;;;12.20;9.50;;;9.50;99.90;;;;;;5038636;28;20470;-65
2022/12/23 10:07:19;;;;;;;13.30;9.27;;;9.50;99.90;;;;;;5017395;28;20460;-65
2022/12/23 10:09:50;;;;;;;11.83;9.37;;;9.60;99.90;;;;;;5018899;28;20509;-65
2022/12/23 10:12:29;;;;;;;11.27;9.53;;;9.60;99.90;;;;;;5018766;28;20470;-65
2022/12/23 10:15:00;;;;;;;14.23;9.47;;;9.60;99.90;;;;;;5018226;28;20781;-65
2022/12/23 10:17:34;;;;;;;12.20;9.60;;;9.60;99.90;;;;;;5018378;28;20465;-65
2022/12/23 10:20:04;;;;;;;10.87;9.13;;;9.60;99.90;;;;;;5017160;28;20438;-65
2022/12/23 10:22:37;;;;;;;10.53;8.77;;;9.50;99.90;;;;;;5015769;28;20458;-65
2022/12/23 10:25:12;;;;;;;14.47;9.23;;;9.50;99.90;;;;;;5016300;28;20518;-65
2022/12/23 10:27:41;;;;;;;11.87;10.50;;;9.50;99.90;;;;;;5016832;28;20467;-65
2022/12/23 10:30:16;;;;;;;15.20;9.87;;;9.50;99.90;;;;;;5017105;28;20486;-65
2022/12/23 10:33:02;;;;;;;13.77;9.40;;;9.50;99.90;;;;;;5016917;28;20474;-65
2022/12/23 10:35:49;;;;;;;11.20;10.00;;;9.50;99.90;;;;;;5017857;28;20473;-65
2022/12/23 10:38:43;;;;;;;15.87;10.57;;;9.50;99.90;;;;;;5017628;28;20463;-65
2022/12/23 10:41:18;;;;;;;15.23;12.57;;;9.60;99.90;;;;;;5011412;28;20578;-65
2022/12/23 10:44:00;;;;;;;14.33;11.87;;;9.60;99.90;;;;;;5018098;28;20469;-65
2022/12/23 10:46:37;;;;;;;13.90;11.47;;;9.60;99.90;;;;;;5017398;28;20522;-65
2022/12/23 10:49:16;;;;;;;15.57;11.33;;;9.60;99.90;;;;;;5018086;28;20477;-66
2022/12/23 10:51:49;;;;;;;17.53;12.17;;;9.60;99.90;;;;;;5018273;28;20506;-66
2022/12/23 10:54:20;;;;;;;15.83;12.97;;;9.70;99.90;;;;;;5018347;28;20463;-65
2022/12/23 10:56:48;;;;;;;15.90;12.70;;;9.80;99.90;;;;;;5017253;28;20464;-66
2022/12/23 10:59:20;;;;;;;16.10;12.80;;;9.90;99.90;;;;;;5017298;28;20460;-66
2022/12/23 11:01:54;;;;;;;21.23;13.73;;;9.90;99.90;;;;;;5017574;28;20456;-66
2022/12/23 11:04:29;;;;;;;20.57;13.33;;;10.00;99.90;;;;;;5003114;28;20464;-66
2022/12/23 11:06:58;;;;;;;17.17;14.60;;;9.90;99.90;;;;;;5018427;28;20971;-66
2022/12/23 11:09:35;;;;;;;16.63;13.07;;;9.90;99.90;;;;;;5018045;28;20473;-66
2022/12/23 11:12:05;;;;;;;18.50;14.00;;;9.90;99.90;;;;;;5017695;28;20534;-66
2022/12/23 11:14:37;;;;;;;26.57;22.03;;;9.90;99.90;;;;;;5017563;28;20474;-66
2022/12/23 11:17:19;;;;;;;18.17;13.60;;;9.80;99.90;;;;;;5017599;28;20494;-66
2022/12/23 11:19:46;;;;;;;18.20;14.53;;;9.80;99.90;;;;;;5017510;28;20468;-66
2022/12/23 11:22:23;;;;;;;16.97;12.97;;;9.80;99.90;;;;;;5016705;28;20465;-65
2022/12/23 11:24:50;;;;;;;16.57;13.37;;;9.70;99.90;;;;;;5017127;28;20472;-65
2022/12/23 11:27:18;;;;;;;13.30;10.63;;;9.70;99.90;;;;;;5032856;28;20468;-66
2022/12/23 11:29:49;;;;;;;14.33;11.70;;;9.60;99.90;;;;;;5035408;28;20497;-65
2022/12/23 11:32:22;;;;;;;10.87;8.87;;;9.60;99.90;;;;;;5036962;28;20463;-66
2022/12/23 11:34:50;;;;;;;12.73;8.83;;;9.60;99.90;;;;;;5036757;28;20463;-66
2022/12/23 11:37:27;;;;;;;12.50;8.60;;;9.60;99.90;;;;;;5037010;28;20463;-65
2022/12/23 11:39:54;;;;;;;9.83;8.83;;;9.50;99.90;;;;;;5037279;28;20746;-65
2022/12/23 11:42:28;;;;;;;9.87;8.30;;;9.50;99.90;;;;;;5037143;28;20463;-65
2022/12/23 11:44:57;;;;;;;10.93;8.37;;;9.50;99.90;;;;;;5036635;28;20466;-66
2022/12/23 11:47:29;;;;;;;9.77;8.47;;;9.50;99.90;;;;;;5036418;28;20467;-66
2022/12/23 11:49:58;;;;;;;9.90;7.97;;;9.50;99.90;;;;;;5033661;28;20546;-66
2022/12/23 11:52:27;;;;;;;11.33;9.37;;;9.40;99.90;;;;;;5020204;28;20463;-65
2022/12/23 11:54:57;;;;;;;14.43;9.90;;;9.50;99.90;;;;;;5019180;28;20518;-65
2022/12/23 11:57:32;;;;;;;11.70;8.90;;;9.60;99.90;;;;;;5019439;28;20444;-65
2022/12/23 12:00:03;;;;;;;10.40;8.80;;;9.60;99.90;;;;;;5019569;28;20462;-65
2022/12/23 12:02:38;;;;;;;12.13;8.70;;;9.60;99.90;;;;;;5020595;28;20467;-65
2022/12/23 12:05:08;;;;;;;12.27;8.33;;;9.80;99.90;;;;;;5020449;28;20494;-66
2022/12/23 12:07:36;;;;;;;11.17;6.77;;;9.80;99.90;;;;;;5020546;28;20479;-65
2022/12/23 12:10:07;;;;;;;11.57;6.10;;;9.80;99.90;;;;;;5020557;28;20500;-65
2022/12/23 12:12:35;;;;;;;8.63;6.77;;;9.70;99.90;;;;;;5021107;28;20700;-65
2022/12/23 12:15:02;;;;;;;10.60;5.67;;;9.70;99.90;;;;;;5020854;28;20463;-66
2022/12/23 12:17:37;;;;;;;5.53;4.90;;;9.70;99.90;;;;;;5020375;28;20885;-66
2022/12/23 12:20:10;;;;;;;8.37;5.17;;;9.80;99.90;;;;;;5020492;28;20468;-66
2022/12/23 12:22:41;;;;;;;6.47;4.57;;;9.70;99.90;;;;;;5020779;28;20730;-66
2022/12/23 12:25:21;;;;;;;7.57;6.00;;;9.70;99.90;;;;;;5020841;28;20467;-66
2022/12/23 12:27:55;;;;;;;7.10;5.70;;;9.70;99.90;;;;;;5020665;28;20737;-65
2022/12/23 12:30:22;;;;;;;10.50;5.37;;;9.70;99.90;;;;;;5019265;28;20963;-65
2022/12/23 12:32:56;;;;;;;8.80;5.00;;;9.70;99.90;;;;;;5020434;28;20444;-65
2022/12/23 12:35:34;;;;;;;5.53;4.93;;;9.60;99.90;;;;;;5020494;28;20460;-64
2022/12/23 12:38:09;;;;;;;5.90;4.67;;;9.60;99.90;;;;;;5020030;28;20562;-63
2022/12/23 12:40:40;;;;;;;7.23;4.77;;;9.50;99.90;;;;;;5020218;28;20498;-66
2022/12/23 12:43:24;;;;;;;5.23;4.73;;;9.50;99.90;;;;;;5020359;28;20750;-66
2022/12/23 12:45:58;;;;;;;5.33;4.83;;;9.50;99.90;;;;;;5020112;28;20464;-67
2022/12/23 12:48:38;;;;;;;7.57;4.97;;;9.50;99.90;;;;;;5020418;28;20742;-67
2022/12/23 12:51:13;;;;;;;6.50;5.30;;;9.40;99.90;;;;;;5020313;28;20466;-66
2022/12/23 12:53:52;;;;;;;8.70;4.53;;;9.40;99.90;;;;;;5019672;28;20463;-65
2022/12/23 12:56:27;;;;;;;8.50;5.90;;;9.30;99.90;;;;;;5018817;28;20483;-66
2022/12/23 12:58:56;;;;;;;5.27;4.23;;;9.30;99.90;;;;;;5020050;28;20466;-66
2022/12/23 13:01:45;;;;;;;5.87;4.87;;;9.30;99.90;;;;;;5019286;28;20471;-68
2022/12/23 13:04:30;;;;;;;7.23;4.70;;;9.20;99.90;;;;;;5019771;28;20504;-66
2022/12/23 13:07:04;;;;;;;6.73;4.23;;;9.20;99.90;;;;;;5000840;28;20464;-67
2022/12/23 13:09:43;;;;;;;5.77;4.60;;;9.20;99.90;;;;;;5000221;28;20792;-66
2022/12/23 13:12:19;;;;;;;6.17;4.97;;;9.20;99.90;;;;;;5000303;28;20555;-67
2022/12/23 13:14:58;;;;;;;5.30;4.20;;;9.20;99.90;;;;;;4999671;28;20548;-67
2022/12/23 13:17:29;;;;;;;4.73;4.27;;;9.20;99.90;;;;;;5000289;28;20459;-67
2022/12/23 13:20:09;;;;;;;5.73;3.80;;;9.20;99.90;;;;;;4999722;28;20471;-67
2022/12/23 13:22:38;;;;;;;8.10;3.60;;;9.10;99.90;;;;;;5000168;28;20464;-67
2022/12/23 13:25:15;;;;;;;4.47;3.73;;;9.20;99.90;;;;;;4999974;28;20465;-67
2022/12/23 13:27:49;;;;;;;5.30;3.73;;;9.30;99.90;;;;;;5000254;28;20469;-67
2022/12/23 13:30:19;;;;;;;4.50;3.00;;;9.30;99.90;;;;;;4999410;28;20785;-67